Weather observations for the past three days for
Pittsburgh International Airport
| Date | Time (edt) | Wind (kph) | Vis. (km) | Weather | Sky Cond. | Temperature (ºC) | Relative Humidity | Wind Chill (°C) | Heat Index (°C) | Pressure | Precipitation (cm) | ||||||
|---|---|---|---|---|---|---|---|---|---|---|---|---|---|---|---|---|---|
| Air | Dwpt | 6 hour | altimeter (cm) | sea level (mb) | 1 hr | 3 hr | 6 hr | ||||||||||
| Max. | Min. | ||||||||||||||||
| 10 | 07:51 | SW 6 | 16.09 | Overcast | FEW001 BKN016 OVC075 | 12.2 | 11.1 | 12.8 | 10 | 93% | 75.97 | 1013.3 | 0.03 | ||||
| 10 | 06:51 | Calm | 14.48 | Mostly Cloudy | FEW001 SCT090 BKN250 | 11.1 | 10.6 | 97% | 75.84 | 1011.8 | |||||||
| 10 | 05:51 | Calm | 9.66 | Fog/Mist | FEW001 FEW050 BKN100 | 11.1 | 10.6 | 97% | 75.79 | 1011.1 | |||||||
| 10 | 04:51 | NW 6 | 16.09 | Mostly Cloudy | SCT065 BKN090 | 12.2 | 11.1 | 93% | 75.77 | 1010.5 | 0.03 | ||||||
| 10 | 03:51 | S 6 | 16.09 | Mostly Cloudy | FEW026 SCT060 BKN080 | 12.2 | 11.7 | 97% | 75.69 | 1009.6 | |||||||
| 10 | 02:51 | Calm | 12.87 | Light Rain | FEW014 BKN050 OVC070 | 12.2 | 11.7 | 97% | 75.69 | 1009.7 | 0.03 | ||||||
| 10 | 01:51 | S 7 | 16.09 | Partly Cloudy | FEW012 FEW025 SCT090 | 12.2 | 11.7 | 18.3 | 12.2 | 97% | 75.72 | 1010.1 | 0.33 | 1.17 | |||
| 10 | 00:51 | Calm | 6.44 | Light Rain | FEW025 BKN034 OVC060 | 12.8 | 12.2 | 96% | 75.77 | 1010.8 | 0.1 | ||||||
| 09 | 23:51 | S 9 | 16.09 | Mostly Cloudy | FEW050 SCT070 BKN090 | 12.2 | 11.7 | 97% | 75.69 | 1009.9 | 0.15 | ||||||
| 09 | 22:51 | S 6 | 6.44 | Light Rain Fog/Mist | FEW020 BKN050 OVC065 | 12.8 | 11.7 | 93% | 75.77 | 1010.8 | 0.58 | 0.58 | |||||
| 09 | 21:51 | N 11 | 16.09 | Overcast | FEW045 BKN090 OVC110 | 16.7 | 8.9 | 60% | 75.69 | 1009.7 | |||||||
| 09 | 20:51 | S 11 | 16.09 | Mostly Cloudy | FEW050 SCT100 BKN200 | 17.2 | 8.3 | 56% | 75.57 | 1007.9 | |||||||
| 09 | 19:51 | S 19 | 16.09 | Partly Cloudy | FEW045 FEW100 SCT220 | 18.3 | 7.8 | 19.4 | 15 | 51% | 75.51 | 1007.4 | |||||
| 09 | 18:51 | SW 24 G 39 | 16.09 | Partly Cloudy | FEW045 SCT250 | 19.4 | 7.8 | 47% | 75.51 | 1007.1 | |||||||
| 09 | 17:51 | S 24 G 41 | 16.09 | Partly Cloudy | SCT042 SCT250 | 19.4 | 7.8 | 47% | 75.51 | 1007.2 | |||||||
| 09 | 16:51 | SW 22 G 35 | 16.09 | Mostly Cloudy | SCT036 BKN048 | 18.9 | 8.3 | 50% | 75.54 | 1007.7 | |||||||
| 09 | 15:51 | SW 20 G 35 | 16.09 | Mostly Cloudy | SCT030 BKN042 | 17.8 | 8.9 | 56% | 75.59 | 1008.3 | |||||||
| 09 | 14:51 | SW 22 G 37 | 16.09 | Mostly Cloudy | SCT026 BKN040 | 16.7 | 9.4 | 62% | 75.64 | 1009.1 | |||||||
| 09 | 13:51 | SW 20 | 16.09 | Light Rain | BKN024 BKN037 | 15 | 9.4 | 15.6 | 10.6 | 69% | 75.67 | 1009.6 | 0.18 | ||||
| 09 | 12:51 | SW 22 G 33 | 16.09 | Mostly Cloudy | BKN020 BKN032 | 15 | 9.4 | 69% | 75.64 | 1009.3 | |||||||
| 09 | 11:51 | SW 20 | 16.09 | Mostly Cloudy | BKN015 BKN050 | 13.9 | 9.4 | 74% | 75.62 | 1008.9 | |||||||
| 09 | 10:51 | SW 15 | 16.09 | Light Rain | BKN013 OVC045 | 12.2 | 10 | 87% | 75.64 | 1009.3 | 0.18 | ||||||
| 09 | 09:51 | SW 13 | 16.09 | Light Rain | BKN010 OVC036 | 11.7 | 10 | 89% | 75.64 | 1009.2 | 0.05 | ||||||
| 09 | 08:51 | SW 19 | 6.44 | Light Rain Fog/Mist | FEW009 BKN020 OVC043 | 10.6 | 9.4 | 92% | 75.67 | 1009.6 | 0.13 | ||||||
| 09 | 07:51 | S 13 | 12.87 | Light Rain | FEW025 BKN045 OVC070 | 10.6 | 9.4 | 11.1 | 9.4 | 92% | 75.67 | 1009.6 | 0.08 | 0.1 | |||
| 09 | 06:51 | SW 17 | 9.66 | Light Rain Fog/Mist | FEW030 BKN045 OVC065 | 10.6 | 8.9 | 89% | 75.64 | 1009.2 | |||||||
| 09 | 05:51 | SW 13 | 12.87 | Light Rain | FEW001 FEW030 OVC055 | 11.1 | 8.3 | 83% | 75.64 | 1009.3 | 0.03 | ||||||
| 09 | 04:51 | SE 6 | 8.05 | Light Rain Fog/Mist | FEW001 OVC055 | 9.4 | 8.9 | 97% | 75.67 | 1009.7 | |||||||
| 09 | 03:51 | Calm | 8.05 | Light Rain Fog/Mist | FEW001 OVC070 | 9.4 | 8.9 | 97% | 75.69 | 1010.0 | |||||||
| 09 | 02:51 | Calm | 9.66 | Fog/Mist | FEW001 OVC070 | 9.4 | 8.3 | 93% | 75.69 | 1010.0 | |||||||
| 09 | 01:51 | E 6 | 16.09 | Overcast | SCT070 OVC095 | 9.4 | 8.3 | 12.2 | 9.4 | 93% | 75.74 | 1010.5 | 0.08 | ||||
| 09 | 00:51 | E 9 | 16.09 | Light Rain | FEW070 OVC100 | 9.4 | 8.9 | 97% | 8 | 75.77 | 1010.9 | ||||||
| 08 | 23:51 | E 9 | 16.09 | Overcast | SCT060 OVC090 | 10 | 8.9 | 93% | 9 | 75.82 | 1011.5 | ||||||
| 08 | 22:51 | NE 7 | 16.09 | Light Rain | OVC060 | 10.6 | 8.9 | 89% | 75.9 | 1012.5 | 0.08 | 0.08 | |||||
| 08 | 21:51 | NE 6 | 14.48 | Light Rain | OVC060 | 11.7 | 8.3 | 80% | 75.87 | 1012.4 | |||||||
| 08 | 20:51 | E 9 | 16.09 | Light Rain | FEW040 OVC065 | 11.7 | 8.3 | 80% | 75.79 | 1011.3 | |||||||
| 08 | 19:51 | E 6 | 16.09 | Overcast | FEW035 SCT070 OVC100 | 12.2 | 8.3 | 14.4 | 12.2 | 77% | 75.77 | 1011.1 | 0.05 | ||||
| 08 | 18:51 | NE 7 | 16.09 | Overcast | OVC070 | 12.2 | 8.3 | 77% | 75.79 | 1011.5 | |||||||
| 08 | 17:51 | Calm | 16.09 | Light Rain | BKN070 OVC090 | 13.3 | 6.1 | 62% | 75.79 | 1011.6 | |||||||
| 08 | 16:51 | Vrbl 7 | 16.09 | Light Rain | FEW032 BKN060 OVC090 | 13.3 | 7.2 | 67% | 75.82 | 1011.9 | 0.03 | 0.05 | |||||
| 08 | 15:51 | W 6 | 16.09 | Light Rain | FEW030 OVC050 | 12.2 | 7.2 | 72% | 75.92 | 1013.1 | 0.03 | ||||||
| 08 | 14:51 | W 13 | 12.87 | Light Rain | FEW026 BKN050 OVC085 | 13.3 | 5 | 57% | 75.97 | 1013.7 | |||||||
| 08 | 13:51 | W 20 G 31 | 16.09 | Light Rain | FEW030 BKN055 OVC100 | 14.4 | 4.4 | 15.6 | 7.8 | 51% | 75.95 | 1013.4 | |||||
| 08 | 12:51 | SW 20 G 37 | 16.09 | Light Rain | BKN050 BKN075 OVC130 | 15 | 3.9 | 48% | 75.95 | 1013.3 | |||||||
| 08 | 11:51 | SW 22 G 37 | 16.09 | Mostly Cloudy | FEW060 BKN120 BKN250 | 15.6 | 3.3 | 44% | 75.97 | 1013.6 | |||||||
| 08 | 10:51 | W 19 G 35 | 16.09 | Mostly Cloudy | FEW065 SCT130 BKN250 | 13.9 | 2.8 | 47% | 76 | 1013.8 | |||||||
| 08 | 09:51 | SW 20 G 31 | 16.09 | Partly Cloudy | FEW055 FEW085 SCT250 | 11.7 | 1.1 | 48% | 76 | 1014.0 | |||||||
| 08 | 08:51 | SW 15 | 16.09 | Mostly Cloudy | BKN075 BKN090 | 8.9 | 0.6 | 56% | 7 | 76.02 | 1014.5 | ||||||
| 08 | 07:51 | SW 13 | 16.09 | Mostly Cloudy | FEW055 SCT070 BKN095 | 7.8 | 1.7 | 7.8 | 5.6 | 66% | 6 | 76 | 1014.1 | ||||
| 08 | 06:51 | SW 11 | 16.09 | Mostly Cloudy | FEW070 BKN100 | 6.7 | 0 | 63% | 5 | 76 | 1013.9 | ||||||
| 08 | 05:51 | SW 7 | 16.09 | Partly Cloudy | FEW060 SCT080 | 6.7 | -0.6 | 60% | 6 | 75.97 | 1013.6 | ||||||
| 08 | 04:51 | W 7 | 16.09 | Overcast | BKN070 OVC090 | 6.7 | 0 | 63% | 6 | 76 | 1013.9 | ||||||
| 08 | 03:51 | Calm | 16.09 | Light Rain | SCT070 OVC085 | 6.7 | 0 | 63% | 75.97 | 1013.9 | |||||||
| 08 | 02:51 | Calm | 16.09 | Partly Cloudy | FEW070 SCT090 | 5.6 | 0.6 | 71% | 75.97 | 1013.8 | |||||||
| 08 | 01:51 | Calm | 16.09 | Overcast | SCT075 OVC100 | 5.6 | 0 | 12.8 | 5 | 68% | 76 | 1014.3 | |||||
| 08 | 00:51 | Calm | 16.09 | Partly Cloudy | SCT070 | 6.1 | 0 | 65% | 76.02 | 1014.6 | |||||||
| 07 | 23:51 | Calm | 16.09 | Fair | CLR | 6.7 | 0 | 63% | 76.02 | 1014.4 | |||||||
| 07 | 22:51 | W 6 | 16.09 | Fair | CLR | 8.9 | -1.1 | 50% | 76.02 | 1014.4 | |||||||
| 07 | 21:51 | W 11 | 16.09 | A Few Clouds | FEW090 | 8.9 | -1.1 | 50% | 7 | 75.97 | 1013.9 | ||||||
| 07 | 20:51 | NW 15 | 16.09 | A Few Clouds | FEW070 FEW090 | 11.1 | -1.7 | 41% | 75.92 | 1013.1 | |||||||
| 07 | 19:51 | NW 26 G 44 | 16.09 | Partly Cloudy | FEW070 SCT090 | 12.8 | -1.1 | 16.7 | 12.8 | 38% | 75.84 | 1012.2 | |||||
| 07 | 18:51 | NW 26 G 39 | 16.09 | Mostly Cloudy | SCT070 BKN085 | 13.9 | -1.1 | 36% | 75.82 | 1011.8 | |||||||
| 07 | 17:51 | W 24 G 41 | 16.09 | Mostly Cloudy | BKN075 | 14.4 | -1.7 | 33% | 75.77 | 1011.1 | |||||||
| 07 | 16:51 | NW 28 | 16.09 | Mostly Cloudy | BKN075 BKN250 | 15.6 | -1.7 | 31% | 75.74 | 1010.7 | |||||||
| 07 | 15:51 | W 19 G 37 | 16.09 | Mostly Cloudy | BKN070 BKN250 | 15 | -2.2 | 31% | 75.77 | 1010.9 | |||||||
| 07 | 14:51 | W 11 G 26 | 16.09 | Mostly Cloudy | BKN065 BKN250 | 15 | -0.6 | 35% | 75.79 | 1011.2 | |||||||
| 07 | 13:51 | W 20 G 37 | 16.09 | Mostly Cloudy | BKN060 BKN250 | 14.4 | 0.6 | 15 | 6.1 | 39% | 75.82 | 1011.6 | |||||
| 07 | 12:51 | W 19 | 16.09 | Mostly Cloudy | BKN055 BKN250 | 13.3 | -0.6 | 39% | 75.84 | 1012.1 | |||||||
| 07 | 11:51 | W 13 | 16.09 | Mostly Cloudy | BKN055 BKN250 | 12.8 | -0.6 | 40% | 75.9 | 1012.7 | |||||||
| 07 | 10:51 | W 19 G 28 | 16.09 | Mostly Cloudy | BKN050 BKN250 | 12.2 | -0.6 | 42% | 75.95 | 1013.2 | |||||||
| 07 | 09:51 | W 13 | 16.09 | A Few Clouds | FEW250 | 11.7 | 1.7 | 51% | 76 | 1014.1 | |||||||
| 07 | 08:51 | S 7 | 16.09 | A Few Clouds | FEW250 | 9.4 | 2.8 | 64% | 9 | 76.02 | 1014.3 | ||||||
| Date | Time (edt) | Wind (kph) | Vis. (km) | Weather | Sky Cond. | Air | Dwpt | Max. | Min. | Relative Humidity | Wind Chill (°C) | Heat Index (°C) | altimeter (cm) | sea level (mb) | 1 hr | 3 hr | 6 hr |
| 6 hour | |||||||||||||||||
| Temperature (ºC) | Pressure | Precipitation (cm) | |||||||||||||||